sensor_id;sensor_type;location;lat;lon;timestamp;temperature;humidity
75210;DHT22;63796;53.136;14.882;2023-02-28T00:01:28;2.30;99.90
75210;DHT22;63796;53.136;14.882;2023-02-28T00:03:56;2.00;99.90
75210;DHT22;63796;53.136;14.882;2023-02-28T00:06:25;2.00;99.90
75210;DHT22;63796;53.136;14.882;2023-02-28T00:08:53;2.00;99.90
75210;DHT22;63796;53.136;14.882;2023-02-28T00:11:20;2.10;99.90
75210;DHT22;63796;53.136;14.882;2023-02-28T00:13:48;1.90;99.90
75210;DHT22;63796;53.136;14.882;2023-02-28T00:16:17;1.70;99.90
75210;DHT22;63796;53.136;14.882;2023-02-28T00:18:46;1.90;99.90
75210;DHT22;63796;53.136;14.882;2023-02-28T00:21:18;1.90;99.90
75210;DHT22;63796;53.136;14.882;2023-02-28T00:23:47;2.00;99.90
75210;DHT22;63796;53.136;14.882;2023-02-28T00:26:14;1.90;99.90
75210;DHT22;63796;53.136;14.882;2023-02-28T00:28:47;1.90;99.90
75210;DHT22;63796;53.136;14.882;2023-02-28T00:31:15;1.90;99.90
75210;DHT22;63796;53.136;14.882;2023-02-28T00:33:43;1.80;99.90
75210;DHT22;63796;53.136;14.882;2023-02-28T00:36:13;1.80;99.90
75210;DHT22;63796;53.136;14.882;2023-02-28T00:38:41;1.60;99.90
75210;DHT22;63796;53.136;14.882;2023-02-28T00:41:14;1.50;99.90
75210;DHT22;63796;53.136;14.882;2023-02-28T00:43:42;1.60;99.90
75210;DHT22;63796;53.136;14.882;2023-02-28T00:46:09;1.60;99.90
75210;DHT22;63796;53.136;14.882;2023-02-28T00:48:37;1.80;99.90
75210;DHT22;63796;53.136;14.882;2023-02-28T00:51:04;1.80;99.90
75210;DHT22;63796;53.136;14.882;2023-02-28T00:53:32;1.60;99.90
75210;DHT22;63796;53.136;14.882;2023-02-28T00:56:00;1.70;99.90
75210;DHT22;63796;53.136;14.882;2023-02-28T00:58:27;1.70;99.90
75210;DHT22;63796;53.136;14.882;2023-02-28T01:00:55;1.70;99.90
75210;DHT22;63796;53.136;14.882;2023-02-28T01:03:22;1.60;99.90
75210;DHT22;63796;53.136;14.882;2023-02-28T01:05:51;1.50;99.90
75210;DHT22;63796;53.136;14.882;2023-02-28T01:08:20;1.30;99.90
75210;DHT22;63796;53.136;14.882;2023-02-28T01:10:47;1.20;99.90
75210;DHT22;63796;53.136;14.882;2023-02-28T01:13:15;1.30;99.90
75210;DHT22;63796;53.136;14.882;2023-02-28T01:15:49;1.20;99.90
75210;DHT22;63796;53.136;14.882;2023-02-28T01:18:18;1.20;99.90
75210;DHT22;63796;53.136;14.882;2023-02-28T01:20:46;1.10;99.90
75210;DHT22;63796;53.136;14.882;2023-02-28T01:23:14;1.00;99.90
75210;DHT22;63796;53.136;14.882;2023-02-28T01:25:41;0.90;99.90
75210;DHT22;63796;53.136;14.882;2023-02-28T01:28:08;0.80;99.90
75210;DHT22;63796;53.136;14.882;2023-02-28T01:30:36;1.10;99.90
75210;DHT22;63796;53.136;14.882;2023-02-28T01:33:03;1.10;99.90
75210;DHT22;63796;53.136;14.882;2023-02-28T01:35:34;1.20;99.90
75210;DHT22;63796;53.136;14.882;2023-02-28T01:38:02;1.30;99.90
75210;DHT22;63796;53.136;14.882;2023-02-28T01:40:47;1.30;99.90
75210;DHT22;63796;53.136;14.882;2023-02-28T01:43:31;1.20;99.90
75210;DHT22;63796;53.136;14.882;2023-02-28T01:46:18;1.10;99.90
75210;DHT22;63796;53.136;14.882;2023-02-28T01:48:53;1.10;99.90
75210;DHT22;63796;53.136;14.882;2023-02-28T01:51:26;1.10;99.90
75210;DHT22;63796;53.136;14.882;2023-02-28T01:54:14;1.00;99.90
75210;DHT22;63796;53.136;14.882;2023-02-28T01:56:45;1.00;99.90
75210;DHT22;63796;53.136;14.882;2023-02-28T01:59:19;1.00;99.90
75210;DHT22;63796;53.136;14.882;2023-02-28T02:01:55;1.00;99.90
75210;DHT22;63796;53.136;14.882;2023-02-28T02:04:24;0.90;99.90
75210;DHT22;63796;53.136;14.882;2023-02-28T02:06:57;0.90;99.90
75210;DHT22;63796;53.136;14.882;2023-02-28T02:09:25;0.90;99.90
75210;DHT22;63796;53.136;14.882;2023-02-28T02:14:54;0.70;99.90
75210;DHT22;63796;53.136;14.882;2023-02-28T02:17:51;0.70;99.90
75210;DHT22;63796;53.136;14.882;2023-02-28T02:32:01;0.30;99.90
75210;DHT22;63796;53.136;14.882;2023-02-28T02:40:20;0.70;99.90
75210;DHT22;63796;53.136;14.882;2023-02-28T02:42:51;0.70;99.90
75210;DHT22;63796;53.136;14.882;2023-02-28T02:45:27;0.40;99.90
75210;DHT22;63796;53.136;14.882;2023-02-28T02:48:03;0.40;99.90
75210;DHT22;63796;53.136;14.882;2023-02-28T02:50:37;0.30;99.90
75210;DHT22;63796;53.136;14.882;2023-02-28T02:53:18;0.20;99.90
75210;DHT22;63796;53.136;14.882;2023-02-28T02:55:48;0.20;99.90
75210;DHT22;63796;53.136;14.882;2023-02-28T02:58:22;0.30;99.90
75210;DHT22;63796;53.136;14.882;2023-02-28T03:00:54;0.30;99.90
75210;DHT22;63796;53.136;14.882;2023-02-28T03:03:26;0.40;99.90
75210;DHT22;63796;53.136;14.882;2023-02-28T03:05:58;0.30;99.90
75210;DHT22;63796;53.136;14.882;2023-02-28T03:08:29;0.20;99.90
75210;DHT22;63796;53.136;14.882;2023-02-28T03:11:01;0.10;99.90
75210;DHT22;63796;53.136;14.882;2023-02-28T03:19:06;0.10;99.90
75210;DHT22;63796;53.136;14.882;2023-02-28T03:26:48;0.30;99.90
75210;DHT22;63796;53.136;14.882;2023-02-28T03:29:37;0.20;99.90
75210;DHT22;63796;53.136;14.882;2023-02-28T03:32:27;0.20;99.90
75210;DHT22;63796;53.136;14.882;2023-02-28T03:37:33;-0.10;99.90
75210;DHT22;63796;53.136;14.882;2023-02-28T03:40:05;0.00;99.90
75210;DHT22;63796;53.136;14.882;2023-02-28T03:42:36;0.20;99.90
75210;DHT22;63796;53.136;14.882;2023-02-28T03:45:16;0.20;99.90
75210;DHT22;63796;53.136;14.882;2023-02-28T03:47:49;0.10;99.90
75210;DHT22;63796;53.136;14.882;2023-02-28T03:50:30;0.00;99.90
75210;DHT22;63796;53.136;14.882;2023-02-28T03:55:40;-0.10;99.90
75210;DHT22;63796;53.136;14.882;2023-02-28T03:58:13;-0.20;99.90
75210;DHT22;63796;53.136;14.882;2023-02-28T04:00:46;-0.20;99.90
75210;DHT22;63796;53.136;14.882;2023-02-28T04:03:17;-0.20;99.90
75210;DHT22;63796;53.136;14.882;2023-02-28T04:05:54;0.00;99.90
75210;DHT22;63796;53.136;14.882;2023-02-28T04:08:23;-0.20;99.90
75210;DHT22;63796;53.136;14.882;2023-02-28T04:10:53;-0.20;99.90
75210;DHT22;63796;53.136;14.882;2023-02-28T04:13:26;-0.30;99.90
75210;DHT22;63796;53.136;14.882;2023-02-28T04:15:54;-0.30;99.90
75210;DHT22;63796;53.136;14.882;2023-02-28T04:18:21;-0.30;99.90
75210;DHT22;63796;53.136;14.882;2023-02-28T04:20:48;-0.40;99.90
75210;DHT22;63796;53.136;14.882;2023-02-28T04:23:16;-0.30;99.90
75210;DHT22;63796;53.136;14.882;2023-02-28T04:25:43;-0.30;99.90
75210;DHT22;63796;53.136;14.882;2023-02-28T04:28:10;-0.40;99.90
75210;DHT22;63796;53.136;14.882;2023-02-28T04:30:37;-0.60;99.90
75210;DHT22;63796;53.136;14.882;2023-02-28T04:33:06;-0.40;99.90
75210;DHT22;63796;53.136;14.882;2023-02-28T04:35:33;-0.60;99.90
75210;DHT22;63796;53.136;14.882;2023-02-28T04:38:00;-0.70;99.90
75210;DHT22;63796;53.136;14.882;2023-02-28T04:40:28;-0.40;99.90
75210;DHT22;63796;53.136;14.882;2023-02-28T04:42:55;-0.40;99.90
75210;DHT22;63796;53.136;14.882;2023-02-28T04:45:23;-0.50;99.90
75210;DHT22;63796;53.136;14.882;2023-02-28T04:47:50;-0.40;99.90
75210;DHT22;63796;53.136;14.882;2023-02-28T04:50:17;-0.50;99.90
75210;DHT22;63796;53.136;14.882;2023-02-28T04:52:45;-0.40;99.90
75210;DHT22;63796;53.136;14.882;2023-02-28T04:55:12;-0.50;99.90
75210;DHT22;63796;53.136;14.882;2023-02-28T04:57:39;-0.50;99.90
75210;DHT22;63796;53.136;14.882;2023-02-28T05:00:09;-0.60;99.90
75210;DHT22;63796;53.136;14.882;2023-02-28T05:02:38;-0.60;99.90
75210;DHT22;63796;53.136;14.882;2023-02-28T05:05:06;-0.60;99.90
75210;DHT22;63796;53.136;14.882;2023-02-28T05:07:33;-0.60;99.90
75210;DHT22;63796;53.136;14.882;2023-02-28T05:10:01;-0.60;99.90
75210;DHT22;63796;53.136;14.882;2023-02-28T05:12:28;-0.70;99.90
75210;DHT22;63796;53.136;14.882;2023-02-28T05:14:55;-0.80;99.90
75210;DHT22;63796;53.136;14.882;2023-02-28T05:17:23;-0.60;99.90
75210;DHT22;63796;53.136;14.882;2023-02-28T05:19:51;-0.50;99.90
75210;DHT22;63796;53.136;14.882;2023-02-28T05:22:18;-0.80;99.90
75210;DHT22;63796;53.136;14.882;2023-02-28T05:24:46;-0.90;99.90
75210;DHT22;63796;53.136;14.882;2023-02-28T05:27:13;-0.80;99.90
75210;DHT22;63796;53.136;14.882;2023-02-28T05:29:40;-0.90;99.90
75210;DHT22;63796;53.136;14.882;2023-02-28T05:32:12;-1.10;99.90
75210;DHT22;63796;53.136;14.882;2023-02-28T05:34:40;-1.00;99.90
75210;DHT22;63796;53.136;14.882;2023-02-28T05:37:11;-0.90;99.90
75210;DHT22;63796;53.136;14.882;2023-02-28T05:39:40;-0.70;99.90
75210;DHT22;63796;53.136;14.882;2023-02-28T05:42:07;-0.90;99.90
75210;DHT22;63796;53.136;14.882;2023-02-28T05:44:36;-0.90;99.90
75210;DHT22;63796;53.136;14.882;2023-02-28T05:47:03;-0.70;99.90
75210;DHT22;63796;53.136;14.882;2023-02-28T05:49:30;-0.70;99.90
75210;DHT22;63796;53.136;14.882;2023-02-28T05:51:58;-0.60;99.90
75210;DHT22;63796;53.136;14.882;2023-02-28T05:54:26;-0.60;99.90
75210;DHT22;63796;53.136;14.882;2023-02-28T05:56:53;-0.60;99.90
75210;DHT22;63796;53.136;14.882;2023-02-28T05:59:20;-0.50;99.90
75210;DHT22;63796;53.136;14.882;2023-02-28T06:01:48;-0.50;99.90
75210;DHT22;63796;53.136;14.882;2023-02-28T06:04:16;-0.70;99.90
75210;DHT22;63796;53.136;14.882;2023-02-28T06:06:57;-0.60;99.90
75210;DHT22;63796;53.136;14.882;2023-02-28T06:09:25;-0.60;99.90
75210;DHT22;63796;53.136;14.882;2023-02-28T06:11:52;-0.60;99.90
75210;DHT22;63796;53.136;14.882;2023-02-28T06:14:20;-0.40;99.90
75210;DHT22;63796;53.136;14.882;2023-02-28T06:16:50;-0.40;99.90
75210;DHT22;63796;53.136;14.882;2023-02-28T06:19:18;-0.30;99.90
75210;DHT22;63796;53.136;14.882;2023-02-28T06:21:49;-0.30;99.90
75210;DHT22;63796;53.136;14.882;2023-02-28T06:24:20;0.00;99.90
75210;DHT22;63796;53.136;14.882;2023-02-28T06:26:50;0.00;99.90
75210;DHT22;63796;53.136;14.882;2023-02-28T06:29:18;0.10;99.90
75210;DHT22;63796;53.136;14.882;2023-02-28T06:31:48;0.20;99.90
75210;DHT22;63796;53.136;14.882;2023-02-28T06:34:16;0.40;99.90
75210;DHT22;63796;53.136;14.882;2023-02-28T06:36:43;0.70;99.90
75210;DHT22;63796;53.136;14.882;2023-02-28T06:39:10;0.50;99.90
75210;DHT22;63796;53.136;14.882;2023-02-28T06:41:38;0.60;99.90
75210;DHT22;63796;53.136;14.882;2023-02-28T06:44:21;0.60;99.90
75210;DHT22;63796;53.136;14.882;2023-02-28T06:46:49;0.90;99.90
75210;DHT22;63796;53.136;14.882;2023-02-28T06:49:16;0.90;99.90
75210;DHT22;63796;53.136;14.882;2023-02-28T06:51:44;1.30;99.90
75210;DHT22;63796;53.136;14.882;2023-02-28T06:54:12;1.20;99.90
75210;DHT22;63796;53.136;14.882;2023-02-28T06:56:40;1.30;99.90
75210;DHT22;63796;53.136;14.882;2023-02-28T06:59:07;1.40;99.90
75210;DHT22;63796;53.136;14.882;2023-02-28T07:01:35;1.50;99.90
75210;DHT22;63796;53.136;14.882;2023-02-28T07:04:03;1.70;99.90
75210;DHT22;63796;53.136;14.882;2023-02-28T07:06:32;1.80;99.90
75210;DHT22;63796;53.136;14.882;2023-02-28T07:08:59;2.00;99.90
75210;DHT22;63796;53.136;14.882;2023-02-28T07:11:27;2.30;99.90
75210;DHT22;63796;53.136;14.882;2023-02-28T07:13:55;2.40;99.90
75210;DHT22;63796;53.136;14.882;2023-02-28T07:16:23;2.80;99.90
75210;DHT22;63796;53.136;14.882;2023-02-28T07:18:52;3.00;99.90
75210;DHT22;63796;53.136;14.882;2023-02-28T07:21:21;3.10;99.90
75210;DHT22;63796;53.136;14.882;2023-02-28T07:23:48;3.10;99.90
75210;DHT22;63796;53.136;14.882;2023-02-28T07:26:16;3.00;99.90
75210;DHT22;63796;53.136;14.882;2023-02-28T07:28:46;3.10;99.90
75210;DHT22;63796;53.136;14.882;2023-02-28T07:31:15;3.30;99.90
75210;DHT22;63796;53.136;14.882;2023-02-28T07:33:43;3.20;99.90
75210;DHT22;63796;53.136;14.882;2023-02-28T07:36:14;3.20;99.90
75210;DHT22;63796;53.136;14.882;2023-02-28T07:38:45;3.40;99.90
75210;DHT22;63796;53.136;14.882;2023-02-28T07:41:20;3.70;99.90
75210;DHT22;63796;53.136;14.882;2023-02-28T07:43:49;4.60;99.90
75210;DHT22;63796;53.136;14.882;2023-02-28T07:46:16;5.90;98.40
75210;DHT22;63796;53.136;14.882;2023-02-28T07:48:44;6.40;93.60
75210;DHT22;63796;53.136;14.882;2023-02-28T07:51:11;5.90;94.50
75210;DHT22;63796;53.136;14.882;2023-02-28T07:53:39;5.00;97.40
75210;DHT22;63796;53.136;14.882;2023-02-28T07:56:09;4.60;99.50
75210;DHT22;63796;53.136;14.882;2023-02-28T07:58:37;4.90;98.60
75210;DHT22;63796;53.136;14.882;2023-02-28T08:01:09;6.00;96.50
75210;DHT22;63796;53.136;14.882;2023-02-28T08:03:38;7.20;93.40
75210;DHT22;63796;53.136;14.882;2023-02-28T08:06:07;7.20;92.30
75210;DHT22;63796;53.136;14.882;2023-02-28T08:08:41;7.70;91.60
75210;DHT22;63796;53.136;14.882;2023-02-28T08:11:08;8.70;85.30
75210;DHT22;63796;53.136;14.882;2023-02-28T08:13:36;8.20;85.80
75210;DHT22;63796;53.136;14.882;2023-02-28T08:16:03;7.00;90.70
75210;DHT22;63796;53.136;14.882;2023-02-28T08:18:31;6.10;92.70
75210;DHT22;63796;53.136;14.882;2023-02-28T08:20:59;5.50;93.30
75210;DHT22;63796;53.136;14.882;2023-02-28T08:23:27;4.90;93.20
75210;DHT22;63796;53.136;14.882;2023-02-28T08:25:55;5.10;93.30
75210;DHT22;63796;53.136;14.882;2023-02-28T08:28:25;5.30;92.80
75210;DHT22;63796;53.136;14.882;2023-02-28T08:30:53;6.30;91.30
75210;DHT22;63796;53.136;14.882;2023-02-28T08:33:21;7.10;85.50
75210;DHT22;63796;53.136;14.882;2023-02-28T08:35:52;9.00;76.80
75210;DHT22;63796;53.136;14.882;2023-02-28T08:38:20;8.70;75.90
75210;DHT22;63796;53.136;14.882;2023-02-28T08:40:48;7.70;80.90
75210;DHT22;63796;53.136;14.882;2023-02-28T08:43:16;7.50;82.70
75210;DHT22;63796;53.136;14.882;2023-02-28T08:45:43;7.90;81.60
75210;DHT22;63796;53.136;14.882;2023-02-28T08:48:11;7.90;80.00
75210;DHT22;63796;53.136;14.882;2023-02-28T08:50:38;7.20;81.60
75210;DHT22;63796;53.136;14.882;2023-02-28T08:53:06;6.90;83.90
75210;DHT22;63796;53.136;14.882;2023-02-28T08:55:33;6.40;87.00
75210;DHT22;63796;53.136;14.882;2023-02-28T08:58:00;6.20;90.30
75210;DHT22;63796;53.136;14.882;2023-02-28T09:00:28;6.10;90.40
75210;DHT22;63796;53.136;14.882;2023-02-28T09:02:55;6.20;92.70
75210;DHT22;63796;53.136;14.882;2023-02-28T09:05:22;6.30;97.60
75210;DHT22;63796;53.136;14.882;2023-02-28T09:07:50;6.60;97.40
75210;DHT22;63796;53.136;14.882;2023-02-28T09:10:17;6.80;96.20
75210;DHT22;63796;53.136;14.882;2023-02-28T09:12:45;6.90;95.10
75210;DHT22;63796;53.136;14.882;2023-02-28T09:15:13;7.10;94.80
75210;DHT22;63796;53.136;14.882;2023-02-28T09:17:41;7.20;94.70
75210;DHT22;63796;53.136;14.882;2023-02-28T09:20:11;7.40;93.90
75210;DHT22;63796;53.136;14.882;2023-02-28T09:22:39;7.50;92.70
75210;DHT22;63796;53.136;14.882;2023-02-28T09:25:06;7.60;90.80
75210;DHT22;63796;53.136;14.882;2023-02-28T09:27:34;7.50;88.60
75210;DHT22;63796;53.136;14.882;2023-02-28T09:30:01;7.60;87.20
75210;DHT22;63796;53.136;14.882;2023-02-28T09:32:28;7.80;86.20
75210;DHT22;63796;53.136;14.882;2023-02-28T09:34:55;8.20;81.60
75210;DHT22;63796;53.136;14.882;2023-02-28T09:37:23;8.20;78.60
75210;DHT22;63796;53.136;14.882;2023-02-28T09:39:50;8.40;80.60
75210;DHT22;63796;53.136;14.882;2023-02-28T09:42:19;8.60;75.10
75210;DHT22;63796;53.136;14.882;2023-02-28T09:44:58;8.60;73.10
75210;DHT22;63796;53.136;14.882;2023-02-28T09:47:36;8.60;73.90
75210;DHT22;63796;53.136;14.882;2023-02-28T09:53:00;9.30;68.10
75210;DHT22;63796;53.136;14.882;2023-02-28T09:55:43;9.10;64.70
75210;DHT22;63796;53.136;14.882;2023-02-28T09:58:49;9.30;65.70
75210;DHT22;63796;53.136;14.882;2023-02-28T10:01:37;8.90;64.00
75210;DHT22;63796;53.136;14.882;2023-02-28T10:07:06;8.70;66.90
75210;DHT22;63796;53.136;14.882;2023-02-28T10:09:48;8.80;65.20
75210;DHT22;63796;53.136;14.882;2023-02-28T10:12:20;9.30;67.00
75210;DHT22;63796;53.136;14.882;2023-02-28T10:14:49;9.10;67.00
75210;DHT22;63796;53.136;14.882;2023-02-28T10:17:21;8.80;66.10
75210;DHT22;63796;53.136;14.882;2023-02-28T10:22:29;9.30;65.20
75210;DHT22;63796;53.136;14.882;2023-02-28T10:25:19;9.00;67.10
75210;DHT22;63796;53.136;14.882;2023-02-28T10:27:49;9.50;65.60
75210;DHT22;63796;53.136;14.882;2023-02-28T10:30:20;9.20;63.20
75210;DHT22;63796;53.136;14.882;2023-02-28T10:32:49;10.30;60.30
75210;DHT22;63796;53.136;14.882;2023-02-28T10:35:24;12.50;56.00
75210;DHT22;63796;53.136;14.882;2023-02-28T10:37:53;14.90;52.00
75210;DHT22;63796;53.136;14.882;2023-02-28T10:43:00;18.30;46.70
75210;DHT22;63796;53.136;14.882;2023-02-28T10:45:30;19.40;43.30
75210;DHT22;63796;53.136;14.882;2023-02-28T10:48:04;20.20;42.50
75210;DHT22;63796;53.136;14.882;2023-02-28T10:50:53;20.10;42.70
75210;DHT22;63796;53.136;14.882;2023-02-28T10:53:36;18.90;44.80
75210;DHT22;63796;53.136;14.882;2023-02-28T10:56:26;19.70;43.40
75210;DHT22;63796;53.136;14.882;2023-02-28T11:03:57;19.90;41.40
75210;DHT22;63796;53.136;14.882;2023-02-28T11:06:29;18.10;43.50
75210;DHT22;63796;53.136;14.882;2023-02-28T11:08:59;17.20;44.50
75210;DHT22;63796;53.136;14.882;2023-02-28T11:11:30;18.30;43.10
75210;DHT22;63796;53.136;14.882;2023-02-28T11:14:14;18.50;42.90
75210;DHT22;63796;53.136;14.882;2023-02-28T11:16:55;17.70;43.80
75210;DHT22;63796;53.136;14.882;2023-02-28T11:19:28;15.20;47.00
75210;DHT22;63796;53.136;14.882;2023-02-28T11:22:02;13.40;52.00
75210;DHT22;63796;53.136;14.882;2023-02-28T11:24:33;14.00;50.10
75210;DHT22;63796;53.136;14.882;2023-02-28T11:27:04;14.70;49.90
75210;DHT22;63796;53.136;14.882;2023-02-28T11:29:32;16.70;46.60
75210;DHT22;63796;53.136;14.882;2023-02-28T11:32:07;18.30;44.50
75210;DHT22;63796;53.136;14.882;2023-02-28T11:34:59;17.50;44.80
75210;DHT22;63796;53.136;14.882;2023-02-28T11:37:30;16.80;45.40
75210;DHT22;63796;53.136;14.882;2023-02-28T11:39:59;16.00;46.40
75210;DHT22;63796;53.136;14.882;2023-02-28T11:45:26;13.40;50.20
75210;DHT22;63796;53.136;14.882;2023-02-28T11:53:19;13.10;53.90
75210;DHT22;63796;53.136;14.882;2023-02-28T11:55:51;12.40;52.50
75210;DHT22;63796;53.136;14.882;2023-02-28T11:58:39;12.00;53.50
75210;DHT22;63796;53.136;14.882;2023-02-28T12:04:10;12.30;54.10
75210;DHT22;63796;53.136;14.882;2023-02-28T12:06:52;12.20;55.10
75210;DHT22;63796;53.136;14.882;2023-02-28T12:09:34;12.70;53.60
75210;DHT22;63796;53.136;14.882;2023-02-28T12:15:00;12.00;55.80
75210;DHT22;63796;53.136;14.882;2023-02-28T12:26:24;12.20;56.50
75210;DHT22;63796;53.136;14.882;2023-02-28T12:29:10;12.40;57.10
75210;DHT22;63796;53.136;14.882;2023-02-28T12:31:49;12.60;56.60
75210;DHT22;63796;53.136;14.882;2023-02-28T12:34:22;12.60;56.50
75210;DHT22;63796;53.136;14.882;2023-02-28T12:36:58;12.60;56.70
75210;DHT22;63796;53.136;14.882;2023-02-28T12:39:37;12.50;55.70
75210;DHT22;63796;53.136;14.882;2023-02-28T12:42:19;12.50;55.50
75210;DHT22;63796;53.136;14.882;2023-02-28T12:47:49;14.00;55.30
75210;DHT22;63796;53.136;14.882;2023-02-28T12:50:22;16.60;52.90
75210;DHT22;63796;53.136;14.882;2023-02-28T12:52:56;19.30;47.70
75210;DHT22;63796;53.136;14.882;2023-02-28T13:00:43;23.00;41.00
75210;DHT22;63796;53.136;14.882;2023-02-28T13:09:08;21.70;40.70
75210;DHT22;63796;53.136;14.882;2023-02-28T13:11:43;21.20;41.60
75210;DHT22;63796;53.136;14.882;2023-02-28T13:16:51;20.40;42.60
75210;DHT22;63796;53.136;14.882;2023-02-28T13:19:23;19.50;42.60
75210;DHT22;63796;53.136;14.882;2023-02-28T13:21:53;18.70;44.10
75210;DHT22;63796;53.136;14.882;2023-02-28T13:29:35;15.60;48.10
75210;DHT22;63796;53.136;14.882;2023-02-28T13:39:50;13.10;51.30
75210;DHT22;63796;53.136;14.882;2023-02-28T13:50:53;12.30;54.70
75210;DHT22;63796;53.136;14.882;2023-02-28T14:07:30;11.10;54.30
75210;DHT22;63796;53.136;14.882;2023-02-28T14:10:05;10.80;55.80
75210;DHT22;63796;53.136;14.882;2023-02-28T14:18:23;10.30;56.60
75210;DHT22;63796;53.136;14.882;2023-02-28T14:20:57;10.00;56.40
75210;DHT22;63796;53.136;14.882;2023-02-28T14:31:37;10.20;58.40
75210;DHT22;63796;53.136;14.882;2023-02-28T14:37:15;10.10;57.50
75210;DHT22;63796;53.136;14.882;2023-02-28T14:39:46;9.80;57.40
75210;DHT22;63796;53.136;14.882;2023-02-28T14:44:56;9.70;59.30
75210;DHT22;63796;53.136;14.882;2023-02-28T14:47:30;9.60;59.00
75210;DHT22;63796;53.136;14.882;2023-02-28T14:49:59;9.50;58.60
75210;DHT22;63796;53.136;14.882;2023-02-28T14:52:29;9.50;60.70
75210;DHT22;63796;53.136;14.882;2023-02-28T14:54:59;9.40;59.70
75210;DHT22;63796;53.136;14.882;2023-02-28T14:57:34;9.30;59.90
75210;DHT22;63796;53.136;14.882;2023-02-28T15:02:48;9.20;62.10
75210;DHT22;63796;53.136;14.882;2023-02-28T15:07:44;9.30;58.80
75210;DHT22;63796;53.136;14.882;2023-02-28T15:12:56;8.90;60.00
75210;DHT22;63796;53.136;14.882;2023-02-28T15:15:26;8.90;61.00
75210;DHT22;63796;53.136;14.882;2023-02-28T15:21:17;8.80;61.20
75210;DHT22;63796;53.136;14.882;2023-02-28T15:23:54;8.60;61.50
75210;DHT22;63796;53.136;14.882;2023-02-28T15:26:27;8.60;61.00
75210;DHT22;63796;53.136;14.882;2023-02-28T15:28:59;8.50;61.00
75210;DHT22;63796;53.136;14.882;2023-02-28T15:31:33;8.30;60.30
75210;DHT22;63796;53.136;14.882;2023-02-28T15:34:43;8.30;61.80
75210;DHT22;63796;53.136;14.882;2023-02-28T15:40:04;8.20;59.60
75210;DHT22;63796;53.136;14.882;2023-02-28T15:42:37;8.00;58.60
75210;DHT22;63796;53.136;14.882;2023-02-28T15:45:05;8.00;58.80
75210;DHT22;63796;53.136;14.882;2023-02-28T15:47:33;7.90;60.00
75210;DHT22;63796;53.136;14.882;2023-02-28T15:50:01;7.80;60.90
75210;DHT22;63796;53.136;14.882;2023-02-28T15:52:37;7.70;61.50
75210;DHT22;63796;53.136;14.882;2023-02-28T15:55:09;7.70;63.00
75210;DHT22;63796;53.136;14.882;2023-02-28T15:57:45;7.60;64.20
75210;DHT22;63796;53.136;14.882;2023-02-28T16:00:16;7.50;64.20
75210;DHT22;63796;53.136;14.882;2023-02-28T16:02:47;7.40;63.80
75210;DHT22;63796;53.136;14.882;2023-02-28T16:05:18;7.30;64.40
75210;DHT22;63796;53.136;14.882;2023-02-28T16:07:55;7.30;64.40
75210;DHT22;63796;53.136;14.882;2023-02-28T16:10:24;7.20;65.30
75210;DHT22;63796;53.136;14.882;2023-02-28T16:12:54;7.10;66.50
75210;DHT22;63796;53.136;14.882;2023-02-28T16:15:24;7.00;64.80
75210;DHT22;63796;53.136;14.882;2023-02-28T16:18:12;7.00;64.80
75210;DHT22;63796;53.136;14.882;2023-02-28T16:20:40;6.90;65.50
75210;DHT22;63796;53.136;14.882;2023-02-28T16:23:08;6.70;66.40
75210;DHT22;63796;53.136;14.882;2023-02-28T16:25:36;6.60;66.80
75210;DHT22;63796;53.136;14.882;2023-02-28T16:28:15;6.30;66.70
75210;DHT22;63796;53.136;14.882;2023-02-28T16:30:47;6.10;70.00
75210;DHT22;63796;53.136;14.882;2023-02-28T16:33:15;6.00;72.40
75210;DHT22;63796;53.136;14.882;2023-02-28T16:35:42;5.90;74.10
75210;DHT22;63796;53.136;14.882;2023-02-28T16:38:09;5.70;76.30
75210;DHT22;63796;53.136;14.882;2023-02-28T16:40:36;5.80;76.90
75210;DHT22;63796;53.136;14.882;2023-02-28T16:43:05;5.90;76.00
75210;DHT22;63796;53.136;14.882;2023-02-28T16:45:36;5.90;76.20
75210;DHT22;63796;53.136;14.882;2023-02-28T16:48:04;5.90;77.30
75210;DHT22;63796;53.136;14.882;2023-02-28T16:50:31;5.90;77.50
75210;DHT22;63796;53.136;14.882;2023-02-28T16:52:59;5.90;78.60
75210;DHT22;63796;53.136;14.882;2023-02-28T16:55:26;5.80;79.20
75210;DHT22;63796;53.136;14.882;2023-02-28T16:57:55;5.80;80.30
75210;DHT22;63796;53.136;14.882;2023-02-28T17:00:25;5.60;80.50
75210;DHT22;63796;53.136;14.882;2023-02-28T17:02:54;5.50;81.40
75210;DHT22;63796;53.136;14.882;2023-02-28T17:05:22;5.50;82.70
75210;DHT22;63796;53.136;14.882;2023-02-28T17:07:49;5.30;83.30
75210;DHT22;63796;53.136;14.882;2023-02-28T17:10:18;5.10;85.00
75210;DHT22;63796;53.136;14.882;2023-02-28T17:12:47;5.20;85.40
75210;DHT22;63796;53.136;14.882;2023-02-28T17:15:16;5.00;84.80
75210;DHT22;63796;53.136;14.882;2023-02-28T17:17:45;4.90;85.10
75210;DHT22;63796;53.136;14.882;2023-02-28T17:20:15;4.70;85.70
75210;DHT22;63796;53.136;14.882;2023-02-28T17:22:44;4.70;87.00
75210;DHT22;63796;53.136;14.882;2023-02-28T17:25:11;4.60;89.00
75210;DHT22;63796;53.136;14.882;2023-02-28T17:27:39;4.60;88.90
75210;DHT22;63796;53.136;14.882;2023-02-28T17:30:23;4.60;91.20
75210;DHT22;63796;53.136;14.882;2023-02-28T17:32:54;4.50;93.10
75210;DHT22;63796;53.136;14.882;2023-02-28T17:35:23;4.30;94.20
75210;DHT22;63796;53.136;14.882;2023-02-28T17:37:50;4.40;94.50
75210;DHT22;63796;53.136;14.882;2023-02-28T17:40:19;4.40;93.70
75210;DHT22;63796;53.136;14.882;2023-02-28T17:42:48;4.30;92.10
75210;DHT22;63796;53.136;14.882;2023-02-28T17:45:16;4.30;92.60
75210;DHT22;63796;53.136;14.882;2023-02-28T17:47:43;4.30;93.90
75210;DHT22;63796;53.136;14.882;2023-02-28T17:50:14;4.10;94.40
75210;DHT22;63796;53.136;14.882;2023-02-28T17:52:44;4.00;94.60
75210;DHT22;63796;53.136;14.882;2023-02-28T17:55:12;4.10;96.00
75210;DHT22;63796;53.136;14.882;2023-02-28T17:57:40;3.60;96.80
75210;DHT22;63796;53.136;14.882;2023-02-28T18:00:10;4.00;96.80
75210;DHT22;63796;53.136;14.882;2023-02-28T18:02:41;3.90;97.60
75210;DHT22;63796;53.136;14.882;2023-02-28T18:05:09;3.90;97.70
75210;DHT22;63796;53.136;14.882;2023-02-28T18:07:40;4.00;96.30
75210;DHT22;63796;53.136;14.882;2023-02-28T18:10:11;3.80;97.10
75210;DHT22;63796;53.136;14.882;2023-02-28T18:12:43;3.80;97.20
75210;DHT22;63796;53.136;14.882;2023-02-28T18:15:11;3.90;96.50
75210;DHT22;63796;53.136;14.882;2023-02-28T18:17:38;3.90;97.90
75210;DHT22;63796;53.136;14.882;2023-02-28T18:20:06;3.80;97.60
75210;DHT22;63796;53.136;14.882;2023-02-28T18:22:36;3.70;98.50
75210;DHT22;63796;53.136;14.882;2023-02-28T18:25:05;3.40;99.90
75210;DHT22;63796;53.136;14.882;2023-02-28T18:27:35;3.30;99.90
75210;DHT22;63796;53.136;14.882;2023-02-28T18:30:03;3.50;99.90